Time;durP1;ratioP1;P1;durP2;ratioP2;P2;SDS_P1;SDS_P2;PMS_P1;PMS_P2;Temp;Humidity;BMP_temperature;BMP_pressure;BME280_temperature;BME280_humidity;BME280_pressure;Samples;Min_cycle;Max_cycle;Signal;HPM_P1;HPM_P2
2021/09/27 00:00:17;;;;;;;38.78;23.85;;;;;;;14.71;100.00;101380.56;5013425;28;20034;-65
2021/09/27 00:02:43;;;;;;;38.63;23.17;;;;;;;14.72;100.00;101380.59;5025245;28;20392;-66
2021/09/27 00:05:13;;;;;;;38.25;23.55;;;;;;;14.72;100.00;101388.59;5022311;28;20026;-62
2021/09/27 00:07:39;;;;;;;38.10;23.30;;;;;;;14.71;100.00;101378.81;5013749;28;20048;-63
2021/09/27 00:10:07;;;;;;;38.97;24.20;;;;;;;14.69;100.00;101374.38;5013933;28;20505;-64
2021/09/27 00:12:32;;;;;;;38.60;23.92;;;;;;;14.67;100.00;101378.84;5013389;28;20381;-64
2021/09/27 00:14:57;;;;;;;37.72;23.85;;;;;;;14.67;100.00;101369.06;5013250;28;20038;-64
2021/09/27 00:17:23;;;;;;;41.00;25.73;;;;;;;14.65;100.00;101376.19;5022288;28;20448;-63
2021/09/27 00:19:48;;;;;;;39.33;25.65;;;;;;;14.57;100.00;101370.84;5024969;28;20025;-63
2021/09/27 00:22:13;;;;;;;41.45;24.90;;;;;;;14.50;100.00;101371.75;5013522;28;20028;-64
2021/09/27 00:24:39;;;;;;;37.60;22.98;;;;;;;14.55;100.00;101369.97;5024369;28;20136;-63
2021/09/27 00:27:05;;;;;;;41.08;24.67;;;;;;;14.51;100.00;101367.34;5022712;28;20053;-63
2021/09/27 00:29:30;;;;;;;39.65;24.55;;;;;;;14.55;100.00;101367.31;5023142;28;20053;-63
2021/09/27 00:31:55;;;;;;;39.70;24.58;;;;;;;14.54;100.00;101370.00;5024113;28;20026;-63
2021/09/27 00:34:21;;;;;;;41.33;25.45;;;;;;;14.52;100.00;101361.09;5011978;28;20038;-63
2021/09/27 00:36:47;;;;;;;41.05;25.27;;;;;;;14.51;100.00;101368.22;5021322;28;20057;-62
2021/09/27 00:39:12;;;;;;;39.20;24.75;;;;;;;14.45;100.00;101357.59;5024571;28;20044;-63
2021/09/27 00:41:38;;;;;;;40.33;24.13;;;;;;;14.45;100.00;101358.47;5021792;28;20034;-63
2021/09/27 00:44:04;;;;;;;38.03;24.58;;;;;;;14.43;100.00;101346.97;5023106;28;20100;-64
2021/09/27 00:46:32;;;;;;;41.08;24.85;;;;;;;14.39;100.00;101347.88;5022973;28;20084;-63
2021/09/27 00:48:58;;;;;;;39.20;23.88;;;;;;;14.39;100.00;101353.19;5022550;28;20025;-63
2021/09/27 00:51:29;;;;;;;37.83;23.73;;;;;;;14.39;100.00;101349.66;5023935;28;20036;-60
2021/09/27 00:53:58;;;;;;;39.58;24.95;;;;;;;14.37;100.00;101354.06;5022068;28;20022;-63
2021/09/27 00:56:28;;;;;;;41.22;24.80;;;;;;;14.37;100.00;101354.97;5023736;28;20037;-63
2021/09/27 00:58:57;;;;;;;42.55;25.67;;;;;;;14.34;100.00;101354.09;5021455;28;20030;-63
2021/09/27 01:01:23;;;;;;;41.72;24.65;;;;;;;14.36;100.00;101336.34;5024089;28;20026;-64
2021/09/27 01:03:49;;;;;;;39.88;24.15;;;;;;;14.28;100.00;101339.03;5021207;28;20152;-63
2021/09/27 01:06:37;;;;;;;42.75;25.05;;;;;;;14.24;100.00;101346.16;5017096;28;20022;-63
2021/09/27 01:09:13;;;;;;;39.65;23.95;;;;;;;14.19;100.00;101345.25;5021489;28;20038;-63
2021/09/27 01:11:59;;;;;;;40.00;24.80;;;;;;;14.21;100.00;101347.91;5021477;28;20507;-63
2021/09/27 01:14:30;;;;;;;39.95;24.50;;;;;;;14.19;100.00;101350.59;5001612;28;20042;-63
2021/09/27 01:17:32;;;;;;;39.35;23.27;;;;;;;14.12;100.00;101351.47;5000180;28;20030;-63
2021/09/27 01:20:00;;;;;;;39.67;24.85;;;;;;;14.15;100.00;101353.25;5000278;28;20093;-64
2021/09/27 01:22:38;;;;;;;40.90;24.85;;;;;;;14.10;100.00;101358.59;5001521;28;20492;-62
2021/09/27 01:25:34;;;;;;;43.13;25.23;;;;;;;14.05;100.00;101355.94;5001175;28;20560;-60
2021/09/27 01:28:37;;;;;;;41.33;24.40;;;;;;;14.03;100.00;101359.50;5000722;28;20039;-60
2021/09/27 01:31:38;;;;;;;43.22;25.35;;;;;;;14.04;100.00;101348.84;5000713;28;20034;-60
2021/09/27 01:34:24;;;;;;;44.22;26.55;;;;;;;14.03;100.00;101348.84;5000955;28;20077;-60
2021/09/27 01:36:59;;;;;;;40.05;25.00;;;;;;;14.06;100.00;101343.53;4998998;28;20113;-61
2021/09/27 01:39:42;;;;;;;41.00;25.83;;;;;;;14.02;100.00;101339.09;5001460;28;20041;-61
2021/09/27 01:42:17;;;;;;;44.63;26.52;;;;;;;14.05;100.00;101336.44;5001209;28;20126;-62
2021/09/27 01:44:45;;;;;;;44.45;26.55;;;;;;;14.03;100.00;101338.22;4999018;28;20133;-63
2021/09/27 01:47:36;;;;;;;43.83;26.15;;;;;;;14.05;100.00;101341.75;5001841;28;20057;-62
2021/09/27 01:50:16;;;;;;;43.20;26.48;;;;;;;14.02;100.00;101332.00;4904831;29;20063;-61
2021/09/27 01:52:51;;;;;;;42.67;26.35;;;;;;;14.05;100.00;101329.38;4921822;29;20040;-61
2021/09/27 01:55:21;;;;;;;47.90;26.50;;;;;;;14.05;100.00;101325.81;4925209;29;20443;-62
2021/09/27 01:58:04;;;;;;;45.22;27.52;;;;;;;14.01;100.00;101319.63;4921403;29;20028;-62
2021/09/27 02:00:40;;;;;;;44.92;27.42;;;;;;;14.04;100.00;101318.75;4923497;29;20032;-62
2021/09/27 02:03:32;;;;;;;46.58;27.50;;;;;;;14.03;100.00;101323.16;4923746;29;20055;-63
2021/09/27 02:06:05;;;;;;;43.40;26.25;;;;;;;14.02;100.00;101331.13;4922635;29;20064;-62
2021/09/27 02:08:51;;;;;;;43.10;27.17;;;;;;;14.06;100.00;101339.09;4926505;29;20114;-63
2021/09/27 02:11:29;;;;;;;47.60;29.02;;;;;;;14.07;100.00;101327.56;4928129;29;20145;-61
2021/09/27 02:14:24;;;;;;;47.33;28.25;;;;;;;14.05;100.00;101331.13;4925697;29;20040;-61
2021/09/27 02:16:50;;;;;;;46.72;28.20;;;;;;;14.05;100.00;101328.47;4924964;29;20099;-62
2021/09/27 02:19:43;;;;;;;47.97;28.70;;;;;;;14.03;100.00;101327.59;4928336;29;20459;-66
2021/09/27 02:22:24;;;;;;;49.38;28.98;;;;;;;14.05;100.00;101329.38;4927432;29;20392;-66
2021/09/27 02:25:01;;;;;;;45.60;28.38;;;;;;;14.07;100.00;101329.34;4921643;29;20047;-64
2021/09/27 02:27:27;;;;;;;44.70;27.15;;;;;;;14.04;100.00;101324.06;4994807;28;20041;-67
2021/09/27 02:29:52;;;;;;;45.80;27.05;;;;;;;13.99;100.00;101315.19;5015315;28;20021;-66
2021/09/27 02:32:28;;;;;;;45.05;27.33;;;;;;;14.00;100.00;101314.31;5015176;28;20113;-66
2021/09/27 02:35:07;;;;;;;45.78;27.95;;;;;;;13.95;100.00;101314.34;5024229;28;20029;-66
2021/09/27 02:37:38;;;;;;;47.28;27.30;;;;;;;13.91;100.00;101308.13;5025064;28;20041;-66
2021/09/27 02:40:21;;;;;;;45.37;27.37;;;;;;;13.90;100.00;101310.78;5025331;28;20370;-67
2021/09/27 02:42:49;;;;;;;;;;;;;;;13.83;100.00;101309.91;5015634;28;20050;-66
2021/09/27 02:45:16;;;;;;;45.42;26.67;;;;;;;13.87;100.00;101313.44;5015092;28;20258;-66
2021/09/27 02:47:49;;;;;;;45.65;25.73;;;;;;;13.82;100.00;101308.16;5026327;28;20032;-66
2021/09/27 02:50:21;;;;;;;46.58;27.45;;;;;;;13.80;100.00;101309.03;5019145;28;20623;-66
2021/09/27 02:52:46;;;;;;;49.97;29.17;;;;;;;13.81;100.00;101311.69;5015029;28;20481;-66
2021/09/27 02:55:15;;;;;;;49.80;28.95;;;;;;;13.79;100.00;101313.47;5026331;28;20033;-66
2021/09/27 02:58:04;;;;;;;46.78;28.40;;;;;;;13.82;100.00;101305.50;5023656;28;20057;-66
2021/09/27 03:00:42;;;;;;;49.83;30.00;;;;;;;13.88;100.00;101312.56;5022499;28;20026;-66
2021/09/27 03:03:30;;;;;;;47.88;29.05;;;;;;;13.89;100.00;101309.91;5024002;28;20379;-66
2021/09/27 03:06:12;;;;;;;47.25;28.75;;;;;;;13.90;100.00;101311.66;5025648;28;20108;-65
2021/09/27 03:09:14;;;;;;;47.50;28.92;;;;;;;13.97;100.00;101314.31;5025493;28;20030;-62
2021/09/27 03:12:13;;;;;;;46.80;28.45;;;;;;;14.06;100.00;101303.66;5024536;28;20042;-61
2021/09/27 03:14:53;;;;;;;47.15;28.98;;;;;;;14.18;100.00;101306.25;5024390;28;20088;-64
2021/09/27 03:17:39;;;;;;;45.47;28.27;;;;;;;14.26;100.00;101309.78;5019309;28;20030;-62
2021/09/27 03:20:07;;;;;;;47.70;27.77;;;;;;;14.33;100.00;101292.06;5023938;28;20025;-66
2021/09/27 03:22:57;;;;;;;45.42;27.50;;;;;;;14.41;100.00;101303.53;5014475;28;20580;-66
2021/09/27 03:25:49;;;;;;;47.03;27.13;;;;;;;14.45;100.00;101302.63;4992652;28;20066;-60
2021/09/27 03:28:14;;;;;;;47.10;26.63;;;;;;;14.53;100.00;101307.03;4992528;28;20046;-66
2021/09/27 03:31:00;;;;;;;44.65;26.55;;;;;;;14.56;100.00;101307.91;4992624;28;20409;-64
2021/09/27 03:33:26;;;;;;;42.92;25.58;;;;;;;14.61;100.00;101299.91;4992608;28;20066;-65
2021/09/27 03:36:13;;;;;;;43.83;25.13;;;;;;;14.66;100.00;101297.25;4992465;28;20038;-66
2021/09/27 03:38:53;;;;;;;44.00;25.73;;;;;;;14.68;100.00;101295.44;4992292;28;20478;-64
2021/09/27 03:41:32;;;;;;;43.67;25.95;;;;;;;14.71;100.00;101295.44;4992276;28;20048;-65
2021/09/27 03:44:15;;;;;;;44.90;26.23;;;;;;;14.74;100.00;101287.44;4992000;28;20448;-64
2021/09/27 03:46:43;;;;;;;44.20;25.35;;;;;;;14.73;100.00;101288.34;4992192;28;20034;-66
2021/09/27 03:49:23;;;;;;;45.67;26.13;;;;;;;14.72;100.00;101294.53;4992173;28;20480;-64
2021/09/27 03:51:53;;;;;;;44.22;26.23;;;;;;;14.72;100.00;101291.88;4988869;28;20139;-65
2021/09/27 03:54:34;;;;;;;42.67;25.55;;;;;;;14.74;100.00;101291.00;4992122;28;20027;-64
2021/09/27 03:57:06;;;;;;;43.33;26.42;;;;;;;14.74;100.00;101287.44;4991974;28;20046;-66
2021/09/27 03:59:40;;;;;;;46.38;26.33;;;;;;;14.73;100.00;101283.00;4991791;28;20034;-63
2021/09/27 04:02:27;;;;;;;42.90;25.50;;;;;;;14.78;100.00;101286.50;5003921;28;20086;-65
2021/09/27 04:04:55;;;;;;;43.00;25.77;;;;;;;14.76;100.00;101286.53;5024852;28;20396;-65
2021/09/27 04:07:45;;;;;;;43.38;26.55;;;;;;;14.73;100.00;101283.00;5013965;28;20056;-63
2021/09/27 04:10:32;;;;;;;45.03;26.75;;;;;;;14.68;100.00;101284.81;5013962;28;20130;-63
2021/09/27 04:13:00;;;;;;;47.78;27.73;;;;;;;14.61;100.00;101282.19;5020463;28;20057;-65
2021/09/27 04:15:53;;;;;;;46.55;27.40;;;;;;;14.53;100.00;101281.28;5024311;28;20389;-67
2021/09/27 04:18:21;;;;;;;;;;;;;;;14.47;100.00;101271.59;5018385;28;20420;-65
2021/09/27 04:21:15;;;;;;;47.38;27.33;;;;;;;14.42;100.00;101273.38;5013614;28;19928;-64
2021/09/27 04:24:06;;;;;;;48.30;29.25;;;;;;;14.40;100.00;101275.19;4991366;28;20047;-65
2021/09/27 04:26:37;;;;;;;46.95;28.00;;;;;;;14.35;100.00;101268.97;4991703;28;20069;-63
2021/09/27 04:29:29;;;;;;;50.38;29.05;;;;;;;14.30;100.00;101274.31;4991095;28;20042;-63
2021/09/27 04:32:30;;;;;;;45.53;27.70;;;;;;;14.30;100.00;101271.66;4991481;28;20121;-62
2021/09/27 04:34:56;;;;;;;45.83;27.23;;;;;;;14.35;100.00;101268.09;4991612;28;20132;-64
2021/09/27 04:37:23;;;;;;;47.85;28.63;;;;;;;14.36;100.00;101267.19;4991170;28;20082;-65
2021/09/27 04:39:50;;;;;;;49.13;28.75;;;;;;;14.36;100.00;101264.53;4991345;28;20092;-63
2021/09/27 04:42:55;;;;;;;48.30;27.77;;;;;;;14.36;100.00;101261.88;4991148;28;20054;-64
2021/09/27 04:45:30;;;;;;;45.88;27.80;;;;;;;14.37;100.00;101264.56;4991198;28;20038;-60
2021/09/27 04:48:32;;;;;;;47.55;27.60;;;;;;;14.40;100.00;101268.97;4974786;28;20041;-66
2021/09/27 04:51:25;;;;;;;45.53;27.10;;;;;;;14.44;100.00;101260.06;4991279;28;20500;-64
2021/09/27 04:53:59;;;;;;;46.88;27.02;;;;;;;14.47;100.00;101265.38;4991230;28;20042;-66
2021/09/27 04:56:33;;;;;;;45.58;27.52;;;;;;;14.46;100.00;101266.28;4991151;28;20493;-65
2021/09/27 04:59:39;;;;;;;45.40;26.90;;;;;;;14.47;100.00;101258.31;4991859;28;20118;-66
2021/09/27 05:02:17;;;;;;;42.75;26.85;;;;;;;14.50;100.00;101262.69;5021293;28;20034;-66
2021/09/27 05:05:01;;;;;;;43.42;25.88;;;;;;;14.55;100.00;101255.59;5021520;28;20042;-66
2021/09/27 05:07:29;;;;;;;43.65;26.35;;;;;;;14.62;100.00;101254.69;5019136;28;20459;-66
2021/09/27 05:10:34;;;;;;;43.00;26.73;;;;;;;14.68;100.00;101253.78;5023838;28;20071;-65
2021/09/27 05:13:11;;;;;;;43.42;26.27;;;;;;;14.74;100.00;101250.19;5019499;28;20053;-66
2021/09/27 05:16:04;;;;;;;44.22;26.48;;;;;;;14.79;100.00;101246.63;5022254;28;20033;-67
2021/09/27 05:18:41;;;;;;;41.80;25.75;;;;;;;14.83;100.00;101250.13;5019950;28;20124;-65
2021/09/27 05:21:24;;;;;;;41.15;25.40;;;;;;;14.85;100.00;101250.13;5022346;28;20040;-65
2021/09/27 05:24:05;;;;;;;41.25;24.35;;;;;;;14.89;100.00;101241.22;5017195;28;20092;-65
2021/09/27 05:27:07;;;;;;;40.60;24.20;;;;;;;14.90;100.00;101232.34;5019919;28;20033;-66
2021/09/27 05:29:53;;;;;;;42.17;24.95;;;;;;;14.92;100.00;101241.19;5020602;28;20384;-66
2021/09/27 05:32:43;;;;;;;40.72;25.27;;;;;;;14.91;100.00;101237.66;5017261;28;20025;-66
2021/09/27 05:35:34;;;;;;;40.33;24.85;;;;;;;14.87;100.00;101251.88;5021915;28;20171;-65
2021/09/27 05:38:46;;;;;;;43.60;25.92;;;;;;;14.86;100.00;101238.59;5019451;28;20049;-64
2021/09/27 05:41:44;;;;;;;44.13;27.13;;;;;;;14.83;100.00;101247.47;4996425;28;20065;-65
2021/09/27 05:44:25;;;;;;;44.30;26.30;;;;;;;14.79;100.00;101251.03;5001210;28;20076;-66
2021/09/27 05:47:06;;;;;;;42.22;26.73;;;;;;;14.82;100.00;101251.00;5003050;28;20109;-66
2021/09/27 05:50:00;;;;;;;44.88;27.35;;;;;;;14.80;100.00;101240.38;5001538;28;20141;-62
2021/09/27 05:52:34;;;;;;;41.47;26.08;;;;;;;14.79;100.00;101248.38;5001684;28;20499;-63
2021/09/27 05:55:12;;;;;;;44.33;27.52;;;;;;;14.82;100.00;101241.28;5006475;28;20036;-61
2021/09/27 05:57:45;;;;;;;47.20;28.50;;;;;;;14.81;100.00;101241.28;5003701;28;20049;-62
2021/09/27 06:00:38;;;;;;;45.13;27.92;;;;;;;14.81;100.00;101239.50;5006851;28;20041;-61
2021/09/27 06:03:30;;;;;;;42.95;27.48;;;;;;;14.84;100.00;101238.59;4990056;28;20038;-63
2021/09/27 06:06:34;;;;;;;47.85;28.52;;;;;;;14.87;100.00;101238.56;5008973;28;20034;-62
2021/09/27 06:09:32;;;;;;;47.60;28.38;;;;;;;14.95;100.00;101235.84;4945870;29;20039;-62
2021/09/27 06:12:04;;;;;;;45.10;28.45;;;;;;;14.98;100.00;101234.06;4915902;29;20508;-62
2021/09/27 06:14:31;;;;;;;;;;;;;;;15.02;100.00;101242.88;4918249;29;20043;-61
2021/09/27 06:16:56;;;;;;;45.47;28.83;;;;;;;15.10;100.00;101232.16;4888771;29;20001;-62
2021/09/27 06:19:39;;;;;;;47.30;28.60;;;;;;;15.19;100.00;101245.44;4897161;29;20119;-61
2021/09/27 06:22:26;;;;;;;44.22;27.90;;;;;;;15.28;100.00;101234.69;4896803;29;20112;-63
2021/09/27 06:24:54;;;;;;;41.97;26.95;;;;;;;15.40;100.00;101232.81;4901445;29;20060;-63
2021/09/27 06:27:48;;;;;;;42.20;26.83;;;;;;;15.49;100.00;101236.28;4903481;29;20611;-63
2021/09/27 06:30:29;;;;;;;40.67;26.05;;;;;;;15.60;100.00;101235.28;4898716;29;20123;-63
2021/09/27 06:33:15;;;;;;;39.30;25.55;;;;;;;15.67;100.00;101227.19;4903541;29;20071;-62
2021/09/27 06:35:43;;;;;;;38.25;24.60;;;;;;;15.78;100.00;101228.88;4901322;29;20048;-61
2021/09/27 06:38:12;;;;;;;40.45;25.02;;;;;;;15.83;100.00;101237.75;4899107;29;20067;-62
2021/09/27 06:40:46;;;;;;;39.13;24.33;;;;;;;15.90;100.00;101227.88;4896978;29;20493;-62
2021/09/27 06:43:17;;;;;;;39.70;23.98;;;;;;;15.93;100.00;101219.84;4894973;29;20075;-63
2021/09/27 06:45:42;;;;;;;36.58;23.10;;;;;;;15.98;100.00;101220.69;4910026;29;20086;-63
2021/09/27 06:48:07;;;;;;;37.13;24.55;;;;;;;15.97;100.00;101232.22;4927817;28;20121;-61
2021/09/27 06:50:33;;;;;;;39.72;24.40;;;;;;;15.98;100.00;101226.88;5019105;28;20034;-61
2021/09/27 06:52:58;;;;;;;38.40;24.70;;;;;;;15.98;100.00;101218.00;5019846;28;20037;-62
2021/09/27 06:55:23;;;;;;;38.00;23.77;;;;;;;16.00;100.00;101214.44;5019768;28;20235;-61
2021/09/27 06:57:49;;;;;;;37.78;23.52;;;;;;;16.08;100.00;101216.13;5016756;28;20125;-63
2021/09/27 07:00:14;;;;;;;39.13;24.35;;;;;;;16.18;100.00;101215.09;5020759;28;20072;-62
2021/09/27 07:02:41;;;;;;;37.25;23.13;;;;;;;16.24;100.00;101212.34;5020254;28;20079;-62
2021/09/27 07:05:09;;;;;;;37.88;23.55;;;;;;;16.27;100.00;101211.44;5020271;28;20029;-62
2021/09/27 07:07:36;;;;;;;35.17;22.55;;;;;;;16.29;100.00;101204.28;5019831;28;20056;-63
2021/09/27 07:10:02;;;;;;;37.25;22.73;;;;;;;16.25;100.00;101202.53;5017833;28;20129;-63
2021/09/27 07:12:27;;;;;;;37.33;22.33;;;;;;;16.26;100.00;101202.53;5019501;28;20029;-62
2021/09/27 07:14:53;;;;;;;36.42;21.90;;;;;;;16.27;100.00;101196.28;5017855;28;20033;-63
2021/09/27 07:17:18;;;;;;;35.67;21.90;;;;;;;16.29;100.00;101202.47;5019446;28;20059;-64
2021/09/27 07:19:43;;;;;;;34.10;21.65;;;;;;;16.34;100.00;101199.78;5018881;28;20033;-61
2021/09/27 07:22:09;;;;;;;35.33;21.20;;;;;;;16.37;100.00;101199.72;5024927;28;20013;-61
2021/09/27 07:24:36;;;;;;;33.38;20.63;;;;;;;16.42;100.00;101200.53;5020735;28;20072;-63
2021/09/27 07:27:02;;;;;;;34.33;21.55;;;;;;;16.46;100.00;101196.03;5017808;28;20527;-63
2021/09/27 07:29:27;;;;;;;35.83;20.80;;;;;;;16.52;100.00;101194.16;5017591;28;20022;-63
2021/09/27 07:31:53;;;;;;;34.22;21.42;;;;;;;16.54;100.00;101183.44;5021915;28;20033;-62
2021/09/27 07:34:20;;;;;;;34.53;20.58;;;;;;;16.61;100.00;101195.78;5017857;28;20033;-62
2021/09/27 07:36:46;;;;;;;33.22;20.23;;;;;;;16.73;100.00;101197.41;5018108;28;20061;-62
2021/09/27 07:39:11;;;;;;;34.75;20.50;;;;;;;16.78;100.00;101192.88;5019432;28;20049;-62
2021/09/27 07:41:37;;;;;;;33.00;19.73;;;;;;;16.92;100.00;101197.13;5019604;28;20400;-66
2021/09/27 07:44:04;;;;;;;32.70;19.58;;;;;;;17.02;100.00;101199.66;5021136;28;20075;-66
2021/09/27 07:46:29;;;;;;;32.92;20.35;;;;;;;17.22;100.00;101203.75;5018202;28;20423;-65
2021/09/27 07:48:56;;;;;;;32.35;18.98;;;;;;;17.28;100.00;101189.41;5020634;28;20030;-66
2021/09/27 07:51:22;;;;;;;32.15;19.63;;;;;;;17.39;100.00;101182.97;5020978;28;20508;-63
2021/09/27 07:53:47;;;;;;;32.58;19.50;;;;;;;17.52;100.00;101185.41;5016720;28;20132;-63
2021/09/27 07:56:13;;;;;;;32.97;17.83;;;;;;;17.53;100.00;101187.16;5022376;28;20034;-63
2021/09/27 07:58:38;;;;;;;31.55;17.77;;;;;;;17.58;99.97;101185.28;5021593;28;20040;-63
2021/09/27 08:01:03;;;;;;;30.17;17.10;;;;;;;17.65;100.00;101184.25;5013263;28;20143;-63
2021/09/27 08:03:29;;;;;;;30.20;17.60;;;;;;;17.82;100.00;101191.91;5013447;28;20034;-64
2021/09/27 08:05:54;;;;;;;29.25;18.20;;;;;;;17.82;97.17;101180.34;5023702;28;20421;-64
2021/09/27 08:08:20;;;;;;;30.73;17.05;;;;;;;17.77;98.01;101170.63;5022676;28;20030;-64
2021/09/27 08:10:45;;;;;;;30.23;17.55;;;;;;;17.76;95.79;101190.25;5023129;28;20133;-63
2021/09/27 08:13:11;;;;;;;30.52;16.52;;;;;;;17.72;98.77;101193.03;5023880;28;20396;-63
2021/09/27 08:15:39;;;;;;;28.60;16.48;;;;;;;17.79;97.21;101183.97;5021560;28;20366;-63
2021/09/27 08:18:07;;;;;;;29.17;16.10;;;;;;;17.83;97.00;101187.47;5024721;28;20025;-64
2021/09/27 08:20:37;;;;;;;28.23;16.48;;;;;;;17.86;95.14;101185.59;5021914;28;20026;-63
2021/09/27 08:23:02;;;;;;;26.13;14.50;;;;;;;17.82;94.77;101189.25;5024909;28;20021;-63
2021/09/27 08:25:28;;;;;;;28.00;14.38;;;;;;;17.75;94.96;101199.19;5021626;28;20117;-64
2021/09/27 08:27:54;;;;;;;28.42;15.10;;;;;;;17.73;97.22;101189.44;5013455;28;20120;-64
2021/09/27 08:30:28;;;;;;;26.02;14.38;;;;;;;17.72;94.35;101187.66;5019175;28;20124;-62
2021/09/27 08:32:55;;;;;;;26.65;14.68;;;;;;;17.65;96.30;101181.59;5019930;28;20159;-61
2021/09/27 08:35:21;;;;;;;27.02;14.48;;;;;;;17.76;96.41;101184.91;5027233;28;20025;-61
2021/09/27 08:37:47;;;;;;;26.35;13.93;;;;;;;17.90;93.73;101189.16;5022945;28;20456;-63
2021/09/27 08:40:47;;;;;;;27.10;14.50;;;;;;;18.05;92.99;101196.81;5023940;28;20384;-62
2021/09/27 08:43:36;;;;;;;26.77;14.05;;;;;;;18.24;92.86;101191.09;5022236;28;20053;-61
2021/09/27 08:46:30;;;;;;;24.30;12.82;;;;;;;18.46;88.95;101188.81;5023662;28;20373;-61
2021/09/27 08:49:14;;;;;;;27.05;13.77;;;;;;;18.50;88.98;101178.94;5018144;28;20516;-61
2021/09/27 08:51:40;;;;;;;29.10;14.43;;;;;;;18.54;88.09;101188.66;5020769;28;20064;-62
2021/09/27 08:54:11;;;;;;;26.77;12.88;;;;;;;18.41;88.59;101198.75;5021217;28;20464;-62
2021/09/27 08:56:54;;;;;;;28.05;13.75;;;;;;;18.38;89.63;101178.28;5024860;28;20014;-64
2021/09/27 08:59:19;;;;;;;25.65;13.60;;;;;;;18.33;89.51;101201.56;5019871;28;20549;-62
2021/09/27 09:02:08;;;;;;;26.65;13.95;;;;;;;18.24;89.93;101193.78;5023797;28;20112;-62
2021/09/27 09:05:04;;;;;;;25.38;13.15;;;;;;;18.15;90.68;101176.13;5025219;28;20036;-64
2021/09/27 09:07:29;;;;;;;26.45;13.05;;;;;;;18.19;89.40;101184.94;5022975;28;20029;-64
2021/09/27 09:10:05;;;;;;;25.60;12.48;;;;;;;18.26;88.96;101187.47;5025470;28;20450;-66
2021/09/27 09:12:48;;;;;;;27.25;13.88;;;;;;;18.09;91.28;101181.63;5022350;28;20022;-66
2021/09/27 09:15:18;;;;;;;26.52;14.38;;;;;;;18.03;90.45;101177.28;5023253;28;20025;-66
2021/09/27 09:17:46;;;;;;;26.60;12.75;;;;;;;17.97;90.59;101180.09;5031338;28;20074;-67
2021/09/27 09:20:21;;;;;;;27.08;14.02;;;;;;;18.01;91.52;101178.22;5028705;28;20101;-66
2021/09/27 09:22:48;;;;;;;25.60;13.90;;;;;;;18.15;91.92;101177.94;5025494;28;20163;-67
2021/09/27 09:25:24;;;;;;;26.30;13.15;;;;;;;18.33;89.34;101179.31;5029626;28;20187;-66
2021/09/27 09:27:50;;;;;;;25.95;13.65;;;;;;;18.40;88.08;101188.97;5026910;28;20033;-67
2021/09/27 09:30:16;;;;;;;25.77;13.25;;;;;;;18.54;89.46;101168.09;5028796;28;20018;-66
2021/09/27 09:32:41;;;;;;;25.05;12.75;;;;;;;18.85;87.18;101174.53;5024957;28;20464;-62
2021/09/27 09:35:15;;;;;;;24.17;12.43;;;;;;;18.97;83.92;101168.88;5027606;28;20032;-62
2021/09/27 09:37:51;;;;;;;26.38;12.60;;;;;;;19.19;84.51;101179.91;5026069;28;20060;-62
2021/09/27 09:40:40;;;;;;;25.05;12.75;;;;;;;19.57;82.10;101161.03;5022942;28;20049;-62
2021/09/27 09:43:10;;;;;;;24.25;11.35;;;;;;;20.03;78.41;101159.72;4971390;28;20210;-62
2021/09/27 09:45:42;;;;;;;23.05;10.75;;;;;;;20.69;75.44;101164.84;4971876;28;20442;-67
2021/09/27 09:48:27;;;;;;;24.40;10.90;;;;;;;20.87;74.33;101153.50;4974090;28;20043;-68
2021/09/27 09:50:56;;;;;;;22.98;10.98;;;;;;;20.99;73.22;101145.97;4974613;28;20422;-68
2021/09/27 09:53:24;;;;;;;24.02;10.95;;;;;;;20.97;72.15;101143.34;4972416;28;20537;-68
2021/09/27 09:56:06;;;;;;;21.45;9.48;;;;;;;20.58;72.45;101145.53;4973659;28;20039;-65
2021/09/27 09:58:45;;;;;;;24.30;9.00;;;;;;;20.03;75.06;101141.81;4982050;28;20081;-66
2021/09/27 10:01:20;;;;;;;22.55;8.98;;;;;;;19.65;76.00;101156.34;4980506;28;20105;-65
2021/09/27 10:03:58;;;;;;;23.75;9.15;;;;;;;19.46;77.38;101159.53;4984171;28;20388;-65
2021/09/27 10:06:32;;;;;;;21.90;9.35;;;;;;;19.25;77.79;101150.28;4974100;28;20035;-65
2021/09/27 10:09:00;;;;;;;23.63;9.27;;;;;;;19.20;78.69;101156.69;4958805;28;20030;-65
2021/09/27 10:11:42;;;;;;;22.75;9.27;;;;;;;19.24;79.15;101147.66;4985268;28;20030;-66
2021/09/27 10:14:29;;;;;;;21.83;9.45;;;;;;;19.28;79.51;101143.94;4979805;28;20117;-64
2021/09/27 10:17:35;;;;;;;22.00;9.10;;;;;;;19.43;78.25;101146.22;4983521;28;20074;-64
2021/09/27 10:20:16;;;;;;;23.65;9.60;;;;;;;19.42;77.66;101143.59;4955622;28;20526;-65
2021/09/27 10:22:56;;;;;;;23.05;9.43;;;;;;;19.52;77.85;101142.41;4963801;28;20123;-65
2021/09/27 10:25:44;;;;;;;23.70;9.57;;;;;;;19.57;77.99;101147.63;4964115;28;20035;-65
2021/09/27 10:28:13;;;;;;;22.20;9.25;;;;;;;19.59;76.42;101132.38;4964820;28;20053;-65
2021/09/27 10:30:45;;;;;;;22.52;9.18;;;;;;;19.62;77.23;101134.97;4963452;28;20445;-65
2021/09/27 10:33:23;;;;;;;22.92;9.15;;;;;;;19.84;76.83;101125.41;4940970;28;20035;-65
2021/09/27 10:36:07;;;;;;;21.73;8.82;;;;;;;20.00;74.81;101116.91;4953266;28;20497;-62
2021/09/27 10:38:42;;;;;;;22.23;8.75;;;;;;;19.99;75.13;101125.88;4952858;29;20036;-65
2021/09/27 10:41:17;;;;;;;22.83;8.95;;;;;;;19.88;76.14;101133.34;4954068;28;20027;-63
2021/09/27 10:43:44;;;;;;;20.70;8.85;;;;;;;19.82;74.11;101121.91;4953218;28;20055;-63
2021/09/27 10:46:10;;;;;;;21.20;8.50;;;;;;;19.82;74.44;101138.00;4955180;28;20470;-65
2021/09/27 10:48:39;;;;;;;22.08;8.40;;;;;;;19.67;73.90;101114.25;4953859;28;20090;-64
2021/09/27 10:51:08;;;;;;;21.90;8.68;;;;;;;19.59;74.18;101118.97;4953862;28;20046;-64
2021/09/27 10:54:00;;;;;;;20.77;8.23;;;;;;;19.54;74.96;101118.22;4954334;28;20051;-64
2021/09/27 10:56:40;;;;;;;;;;;;;;;19.61;74.67;101118.00;4979672;28;20062;-65
2021/09/27 10:59:11;;;;;;;20.67;8.52;;;;;;;19.46;75.11;101127.38;5019883;28;19913;-64
2021/09/27 11:01:51;;;;;;;21.30;8.73;;;;;;;19.54;75.25;101118.22;5021174;28;20030;-65
2021/09/27 11:04:29;;;;;;;20.70;8.90;;;;;;;19.63;73.93;101123.31;5021548;28;20036;-64
2021/09/27 11:06:58;;;;;;;22.20;9.45;;;;;;;19.61;72.58;101109.09;5021336;28;20026;-64
2021/09/27 11:09:28;;;;;;;22.23;9.30;;;;;;;19.58;73.04;101110.03;5017845;28;20040;-64
2021/09/27 11:12:15;;;;;;;20.90;8.63;;;;;;;19.54;74.19;101112.84;5021991;28;20087;-65
2021/09/27 11:14:55;;;;;;;21.50;8.43;;;;;;;19.58;74.04;101109.19;5019224;28;20033;-64
2021/09/27 11:17:30;;;;;;;21.55;8.90;;;;;;;19.57;74.66;101112.78;5020823;28;20030;-65
2021/09/27 11:20:17;;;;;;;22.30;9.20;;;;;;;19.60;74.55;101112.69;5021249;28;20053;-65
2021/09/27 11:22:55;;;;;;;20.33;8.30;;;;;;;19.54;73.48;101102.13;5017834;28;20037;-64
2021/09/27 11:25:20;;;;;;;21.60;8.48;;;;;;;19.49;75.31;101086.19;5024329;28;20029;-65
2021/09/27 11:28:13;;;;;;;21.30;8.45;;;;;;;19.57;73.64;101104.72;5014084;28;20029;-64
2021/09/27 11:30:59;;;;;;;19.50;7.20;;;;;;;19.39;73.74;101095.44;5018480;28;20113;-65
2021/09/27 11:33:30;;;;;;;21.50;7.45;;;;;;;19.45;74.06;101092.56;5023742;28;20104;-65
2021/09/27 11:35:59;;;;;;;21.05;7.38;;;;;;;19.56;72.58;101094.94;5020917;28;20112;-64
2021/09/27 11:38:30;;;;;;;22.27;7.15;;;;;;;19.56;74.31;101094.94;5016901;28;20092;-64
2021/09/27 11:41:21;;;;;;;19.92;7.05;;;;;;;19.65;73.54;101094.66;5024129;28;20021;-63
2021/09/27 11:44:05;;;;;;;18.83;6.43;;;;;;;19.83;72.87;101091.47;5018997;28;20058;-64
2021/09/27 11:46:36;;;;;;;18.85;6.13;;;;;;;20.29;71.80;101088.28;5021127;28;20072;-62